createdAt,value
2017-06-27T00:00:36.450Z,0
2017-06-27T00:01:58.612Z,0
2017-06-27T00:03:20.241Z,0
2017-06-27T00:04:42.523Z,0
2017-06-27T00:06:04.643Z,0
2017-06-27T00:07:26.203Z,0
2017-06-27T00:08:47.699Z,0
2017-06-27T00:10:09.873Z,0
2017-06-27T00:11:31.833Z,0
2017-06-27T00:12:54.008Z,0
2017-06-27T00:14:15.940Z,0
2017-06-27T00:15:37.773Z,0
2017-06-27T00:16:59.614Z,0
2017-06-27T00:18:21.122Z,0
2017-06-27T00:19:43.406Z,0
2017-06-27T00:21:05.514Z,0
2017-06-27T00:22:27.686Z,0
2017-06-27T00:23:49.173Z,0
2017-06-27T00:25:11.603Z,0
2017-06-27T00:26:33.744Z,0
2017-06-27T00:27:56.023Z,0
2017-06-27T00:29:17.514Z,0
2017-06-27T00:30:39.654Z,0
2017-06-27T00:32:01.823Z,0
2017-06-27T00:33:23.664Z,0
2017-06-27T00:34:45.904Z,0
2017-06-27T00:36:08.014Z,0
2017-06-27T00:37:30.226Z,0
2017-06-27T00:38:52.793Z,0
2017-06-27T00:40:14.924Z,0
2017-06-27T00:41:36.723Z,0
2017-06-27T00:42:59.023Z,0
2017-06-27T00:44:21.194Z,0
2017-06-27T00:45:42.825Z,0
2017-06-27T00:47:04.944Z,0
2017-06-27T00:48:27.048Z,0
2017-06-27T00:49:48.877Z,0
2017-06-27T00:51:11.004Z,0
2017-06-27T00:52:33.432Z,0
2017-06-27T00:53:55.983Z,0
2017-06-27T00:55:18.411Z,0
2017-06-27T00:56:39.592Z,0
2017-06-27T00:58:02.035Z,0
2017-06-27T00:59:24.273Z,0
2017-06-27T01:00:46.123Z,0
2017-06-27T01:02:08.273Z,0
2017-06-27T01:03:30.813Z,0
2017-06-27T01:04:52.325Z,0
2017-06-27T01:06:14.837Z,0
2017-06-27T01:07:36.662Z,0
2017-06-27T01:08:58.491Z,0
2017-06-27T01:10:20.943Z,0
2017-06-27T01:11:42.692Z,0
2017-06-27T01:13:04.501Z,0
2017-06-27T01:14:26.615Z,0
2017-06-27T01:15:48.744Z,0
2017-06-27T01:17:11.054Z,0
2017-06-27T01:18:33.182Z,0
2017-06-27T01:19:55.013Z,0
2017-06-27T01:21:16.824Z,0
2017-06-27T01:22:38.991Z,0
2017-06-27T01:24:00.186Z,0
2017-06-27T01:25:22.324Z,0
2017-06-27T01:26:44.445Z,0
2017-06-27T01:28:07.338Z,0
2017-06-27T01:29:28.845Z,0
2017-06-27T01:30:51.335Z,0
2017-06-27T01:32:13.137Z,0
2017-06-27T01:33:35.292Z,0
2017-06-27T01:34:57.749Z,0
2017-06-27T01:36:19.235Z,0
2017-06-27T01:37:41.663Z,0
2017-06-27T01:39:04.433Z,0
2017-06-27T01:40:27.164Z,0
2017-06-27T01:41:49.283Z,0
2017-06-27T01:43:11.123Z,0
2017-06-27T01:44:33.234Z,0
2017-06-27T01:45:55.034Z,0
2017-06-27T01:47:16.497Z,0
2017-06-27T01:48:38.599Z,0
2017-06-27T01:50:01.404Z,0
2017-06-27T01:51:22.926Z,0
2017-06-27T01:52:45.372Z,0
2017-06-27T01:54:07.524Z,0
2017-06-27T01:55:29.673Z,0
2017-06-27T01:56:51.815Z,0
2017-06-27T01:58:14.244Z,0
2017-06-27T01:59:35.734Z,0
2017-06-27T02:00:57.519Z,0
2017-06-27T02:02:19.631Z,0
2017-06-27T02:03:41.164Z,0
2017-06-27T02:05:03.314Z,0
2017-06-27T02:06:25.687Z,0
2017-06-27T02:07:47.495Z,0
2017-06-27T02:09:09.274Z,0
2017-06-27T02:10:31.421Z,0
2017-06-27T02:11:53.385Z,0
2017-06-27T02:13:15.501Z,0
2017-06-27T02:14:37.434Z,0
2017-06-27T02:15:58.925Z,0
2017-06-27T02:17:21.361Z,0
2017-06-27T02:18:43.169Z,0
2017-06-27T02:20:04.964Z,0
2017-06-27T02:21:27.144Z,0
2017-06-27T02:22:48.929Z,0
2017-06-27T02:24:10.873Z,0
2017-06-27T02:25:32.747Z,0
2017-06-27T02:26:54.436Z,0
2017-06-27T02:28:16.925Z,0
2017-06-27T02:29:38.724Z,0
2017-06-27T02:31:01.014Z,0
2017-06-27T02:32:22.823Z,0
2017-06-27T02:33:45.074Z,0
2017-06-27T02:35:06.584Z,0
2017-06-27T02:36:28.399Z,0
2017-06-27T02:37:50.825Z,0
2017-06-27T02:39:13.023Z,0
2017-06-27T02:40:34.824Z,0
2017-06-27T02:41:56.641Z,0
2017-06-27T02:43:18.135Z,0
2017-06-27T02:44:40.304Z,0
2017-06-27T02:46:01.942Z,5
2017-06-27T02:47:23.772Z,5
2017-06-27T02:48:45.671Z,5
2017-06-27T02:50:07.793Z,5
2017-06-27T02:51:29.598Z,5
2017-06-27T02:52:52.041Z,5
2017-06-27T02:54:14.150Z,5
2017-06-27T02:55:35.952Z,5
2017-06-27T02:56:57.476Z,10
2017-06-27T02:58:19.585Z,10
2017-06-27T02:59:41.854Z,10
2017-06-27T03:01:03.655Z,10
2017-06-27T03:02:25.763Z,10
2017-06-27T03:03:48.051Z,15
2017-06-27T03:05:10.160Z,15
2017-06-27T03:06:32.474Z,15
2017-06-27T03:07:53.961Z,15
2017-06-27T03:09:15.762Z,20
2017-06-27T03:10:37.913Z,20
2017-06-27T03:11:59.864Z,20
2017-06-27T03:13:21.473Z,25
2017-06-27T03:14:42.644Z,25
2017-06-27T03:16:04.769Z,25
2017-06-27T03:17:27.244Z,30
2017-06-27T03:18:49.051Z,30
2017-06-27T03:20:11.174Z,35
2017-06-27T03:21:33.313Z,40
2017-06-27T03:22:54.804Z,40
2017-06-27T03:24:16.897Z,45
2017-06-27T03:25:38.382Z,45
2017-06-27T03:26:59.603Z,45
2017-06-27T03:28:22.342Z,50
2017-06-27T03:29:44.489Z,50
2017-06-27T03:31:06.704Z,55
2017-06-27T03:32:29.154Z,55
2017-06-27T03:33:51.698Z,60
2017-06-27T03:35:13.494Z,60
2017-06-27T03:36:35.323Z,65
2017-06-27T03:37:57.570Z,65
2017-06-27T03:39:20.404Z,70
2017-06-27T03:40:42.833Z,70
2017-06-27T03:42:05.083Z,75
2017-06-27T03:43:27.223Z,80
2017-06-27T03:44:49.804Z,80
2017-06-27T03:46:11.335Z,85
2017-06-27T03:47:32.826Z,85
2017-06-27T03:48:54.330Z,85
2017-06-27T03:50:16.499Z,90
2017-06-27T03:51:38.303Z,90
2017-06-27T03:53:00.442Z,90
2017-06-27T03:54:22.396Z,95
2017-06-27T03:55:45.344Z,95
2017-06-27T03:57:07.214Z,100
2017-06-27T03:58:29.650Z,110
2017-06-27T03:59:51.455Z,105
2017-06-27T04:01:13.329Z,110
2017-06-27T04:02:34.825Z,115
2017-06-27T04:03:56.625Z,120
2017-06-27T04:05:19.143Z,120
2017-06-27T04:06:40.881Z,125
2017-06-27T04:08:02.485Z,125
2017-06-27T04:09:24.332Z,130
2017-06-27T04:10:45.843Z,135
2017-06-27T04:12:08.348Z,135
2017-06-27T04:13:30.566Z,135
2017-06-27T04:14:52.485Z,140
2017-06-27T04:16:14.021Z,140
2017-06-27T04:17:36.194Z,140
2017-06-27T04:18:58.314Z,145
2017-06-27T04:20:20.590Z,150
2017-06-27T04:21:42.408Z,155
2017-06-27T04:23:04.480Z,165
2017-06-27T04:24:26.308Z,170
2017-06-27T04:25:47.792Z,170
2017-06-27T04:27:09.608Z,170
2017-06-27T04:28:31.802Z,170
2017-06-27T04:29:53.922Z,170
2017-06-27T04:31:15.753Z,170
2017-06-27T04:32:38.193Z,175
2017-06-27T04:34:00.549Z,175
2017-06-27T04:35:22.044Z,175
2017-06-27T04:36:44.142Z,175
2017-06-27T04:38:06.050Z,180
2017-06-27T04:39:28.543Z,180
2017-06-27T04:40:50.707Z,180
2017-06-27T04:42:13.144Z,185
2017-06-27T04:43:35.583Z,190
2017-06-27T04:44:57.444Z,195
2017-06-27T04:46:19.884Z,210
2017-06-27T04:47:41.694Z,215
2017-06-27T04:49:03.512Z,225
2017-06-27T04:50:26.371Z,250
2017-06-27T04:51:48.649Z,280
2017-06-27T04:53:10.527Z,425
2017-06-27T04:54:32.721Z,560
2017-06-27T04:55:54.898Z,590
2017-06-27T04:57:16.443Z,605
2017-06-27T04:58:38.259Z,645
2017-06-27T05:00:00.189Z,665
2017-06-27T05:01:22.327Z,655
2017-06-27T05:02:44.453Z,675
2017-06-27T05:04:06.354Z,740
2017-06-27T05:05:28.190Z,760
2017-06-27T05:06:50.040Z,765
2017-06-27T05:08:12.176Z,760
2017-06-27T05:09:34.323Z,785
2017-06-27T05:10:56.793Z,790
2017-06-27T05:12:19.335Z,790
2017-06-27T05:13:40.833Z,835
2017-06-27T05:15:02.339Z,835
2017-06-27T05:16:24.760Z,865
2017-06-27T05:17:47.268Z,920
2017-06-27T05:19:09.523Z,870
2017-06-27T05:20:31.344Z,845
2017-06-27T05:21:53.482Z,875
2017-06-27T05:23:15.547Z,795
2017-06-27T05:24:37.504Z,750
2017-06-27T05:26:00.012Z,695
2017-06-27T05:27:22.214Z,825
2017-06-27T05:28:45.010Z,890
2017-06-27T05:30:07.474Z,900
2017-06-27T05:31:28.973Z,925
2017-06-27T05:32:51.163Z,975
2017-06-27T05:34:13.923Z,1130
2017-06-27T05:35:35.792Z,1055
2017-06-27T05:36:57.927Z,1085
2017-06-27T05:38:19.786Z,985
2017-06-27T05:39:42.494Z,1080
2017-06-27T05:41:04.323Z,1060
2017-06-27T05:42:26.773Z,1090
2017-06-27T05:43:48.941Z,1015
2017-06-27T05:45:11.175Z,1045
2017-06-27T05:46:33.106Z,985
2017-06-27T05:47:55.243Z,1000
2017-06-27T05:49:17.394Z,1030
2017-06-27T05:50:39.643Z,1020
2017-06-27T05:52:02.141Z,930
2017-06-27T05:53:24.290Z,920
2017-06-27T05:54:46.443Z,865
2017-06-27T05:56:08.823Z,840
2017-06-27T05:57:30.025Z,840
2017-06-27T05:58:52.193Z,900
2017-06-27T06:00:14.792Z,865
2017-06-27T06:01:36.883Z,855
2017-06-27T06:02:59.338Z,830
2017-06-27T06:04:21.496Z,855
2017-06-27T06:05:43.383Z,820
2017-06-27T06:07:05.813Z,810
2017-06-27T06:08:27.663Z,840
2017-06-27T06:09:50.143Z,750
2017-06-27T06:11:11.983Z,800
2017-06-27T06:12:34.191Z,755
2017-06-27T06:13:56.757Z,765
2017-06-27T06:15:18.914Z,715
2017-06-27T06:16:40.743Z,635
2017-06-27T06:18:03.113Z,640
2017-06-27T06:19:24.932Z,660
2017-06-27T06:20:46.932Z,565
2017-06-27T06:22:08.771Z,575
2017-06-27T06:23:30.883Z,585
2017-06-27T06:24:53.043Z,665
2017-06-27T06:26:15.565Z,630
2017-06-27T06:27:37.385Z,665
2017-06-27T06:28:59.564Z,595
2017-06-27T06:30:21.828Z,605
2017-06-27T06:31:44.077Z,585
2017-06-27T06:33:06.230Z,570
2017-06-27T06:34:28.723Z,565
2017-06-27T06:35:50.563Z,560
2017-06-27T06:37:12.720Z,560
2017-06-27T06:38:35.184Z,530
2017-06-27T06:39:57.313Z,585
2017-06-27T06:41:19.153Z,615
2017-06-27T06:42:41.638Z,510
2017-06-27T06:44:03.843Z,635
2017-06-27T06:45:26.622Z,565
2017-06-27T06:46:48.434Z,510
2017-06-27T06:48:10.595Z,550
2017-06-27T06:49:32.762Z,625
2017-06-27T06:50:55.182Z,620
2017-06-27T06:52:17.032Z,625
2017-06-27T06:53:38.533Z,620
2017-06-27T06:55:00.358Z,620
2017-06-27T06:56:21.822Z,625
2017-06-27T06:57:43.994Z,630
2017-06-27T06:59:05.822Z,650
2017-06-27T07:00:27.662Z,660
2017-06-27T07:01:50.172Z,665
2017-06-27T07:03:12.322Z,645
2017-06-27T07:04:33.881Z,660
2017-06-27T07:05:55.066Z,565
2017-06-27T07:07:17.635Z,655
2017-06-27T07:08:39.484Z,640
2017-06-27T07:10:01.022Z,505
2017-06-27T07:11:23.182Z,550
2017-06-27T07:12:45.293Z,560
2017-06-27T07:14:07.573Z,580
2017-06-27T07:15:30.047Z,580
2017-06-27T07:16:52.203Z,615
2017-06-27T07:18:14.703Z,615
2017-06-27T07:19:37.232Z,615
2017-06-27T07:20:59.380Z,620
2017-06-27T07:22:21.223Z,615
2017-06-27T07:23:43.736Z,605
2017-06-27T07:25:05.572Z,520
2017-06-27T07:26:28.072Z,545
2017-06-27T07:27:49.901Z,575
2017-06-27T07:29:12.101Z,550
2017-06-27T07:30:33.928Z,550
2017-06-27T07:31:56.063Z,545
2017-06-27T07:33:18.237Z,590
2017-06-27T07:34:40.845Z,590
2017-06-27T07:36:03.450Z,575
2017-06-27T07:37:25.150Z,595
2017-06-27T07:38:47.312Z,615
2017-06-27T07:40:09.872Z,610
2017-06-27T07:41:31.699Z,635
2017-06-27T07:42:53.562Z,620
2017-06-27T07:44:15.080Z,615
2017-06-27T07:45:37.269Z,620
2017-06-27T07:46:58.541Z,555
2017-06-27T07:48:20.477Z,560
2017-06-27T07:49:42.619Z,535
2017-06-27T07:51:05.003Z,545
2017-06-27T07:52:27.166Z,560
2017-06-27T07:53:49.663Z,570
2017-06-27T07:55:11.505Z,585
2017-06-27T07:56:33.953Z,590
2017-06-27T07:57:55.857Z,595
2017-06-27T07:59:17.793Z,610
2017-06-27T08:00:40.274Z,590
2017-06-27T08:02:02.831Z,540
2017-06-27T08:03:24.986Z,545
2017-06-27T08:04:46.573Z,535
2017-06-27T08:06:09.039Z,505
2017-06-27T08:07:31.592Z,475
2017-06-27T08:08:53.405Z,490
2017-06-27T08:10:15.569Z,500
2017-06-27T08:11:38.071Z,535
2017-06-27T08:13:00.888Z,555
2017-06-27T08:14:23.363Z,535
2017-06-27T08:15:45.762Z,545
2017-06-27T08:17:07.563Z,500
2017-06-27T08:18:30.341Z,515
2017-06-27T08:19:51.902Z,505
2017-06-27T08:21:13.470Z,550
2017-06-27T08:22:35.045Z,440
2017-06-27T08:23:57.482Z,330
2017-06-27T08:25:19.734Z,300
2017-06-27T08:26:42.030Z,285
2017-06-27T08:28:03.541Z,280
2017-06-27T08:29:25.934Z,265
2017-06-27T08:30:48.392Z,270
2017-06-27T08:32:10.883Z,270
2017-06-27T08:33:33.040Z,255
2017-06-27T08:34:55.292Z,255
2017-06-27T08:36:17.800Z,250
2017-06-27T08:37:39.647Z,255
2017-06-27T08:39:01.160Z,260
2017-06-27T08:40:23.911Z,255
2017-06-27T08:41:46.414Z,265
2017-06-27T08:43:08.865Z,260
2017-06-27T08:44:31.069Z,255
2017-06-27T08:45:53.758Z,240
2017-06-27T08:47:15.593Z,245
2017-06-27T08:48:37.433Z,240
2017-06-27T08:49:59.903Z,240
2017-06-27T08:51:21.742Z,240
2017-06-27T08:52:43.881Z,240
2017-06-27T08:54:05.700Z,240
2017-06-27T08:55:28.192Z,235
2017-06-27T08:56:50.334Z,235
2017-06-27T08:58:12.509Z,235
2017-06-27T08:59:34.342Z,240
2017-06-27T09:00:56.794Z,245
2017-06-27T09:02:19.311Z,250
2017-06-27T09:03:41.153Z,265
2017-06-27T09:05:03.663Z,290
2017-06-27T09:06:25.513Z,305
2017-06-27T09:07:47.611Z,310
2017-06-27T09:09:09.772Z,295
2017-06-27T09:10:31.932Z,295
2017-06-27T09:11:54.382Z,280
2017-06-27T09:13:16.784Z,270
2017-06-27T09:14:38.621Z,260
2017-06-27T09:16:00.872Z,265
2017-06-27T09:17:22.710Z,280
2017-06-27T09:18:45.192Z,285
2017-06-27T09:20:07.348Z,305
2017-06-27T09:21:29.475Z,325
2017-06-27T09:22:51.829Z,305
2017-06-27T09:24:14.542Z,305
2017-06-27T09:25:36.681Z,280
2017-06-27T09:26:58.494Z,275
2017-06-27T09:28:20.333Z,275
2017-06-27T09:29:42.830Z,280
2017-06-27T09:31:04.988Z,280
2017-06-27T09:32:27.199Z,290
2017-06-27T09:33:49.419Z,300
2017-06-27T09:35:11.981Z,300
2017-06-27T09:36:34.438Z,300
2017-06-27T09:37:55.972Z,335
2017-06-27T09:39:18.242Z,345
2017-06-27T09:40:41.050Z,360
2017-06-27T09:42:03.218Z,375
2017-06-27T09:43:25.061Z,390
2017-06-27T09:44:47.603Z,410
2017-06-27T09:46:10.046Z,440
2017-06-27T09:47:31.579Z,455
2017-06-27T09:48:53.709Z,470
2017-06-27T09:50:15.542Z,485
2017-06-27T09:51:38.004Z,485
2017-06-27T09:53:00.257Z,485
2017-06-27T09:54:22.190Z,485
2017-06-27T09:55:43.690Z,470
2017-06-27T09:57:05.816Z,445
2017-06-27T09:58:27.677Z,435
2017-06-27T09:59:49.859Z,420
2017-06-27T10:01:12.323Z,415
2017-06-27T10:02:34.803Z,420
2017-06-27T10:03:56.943Z,415
2017-06-27T10:05:19.083Z,415
2017-06-27T10:06:41.243Z,415
2017-06-27T10:08:03.721Z,410
2017-06-27T10:09:25.873Z,420
2017-06-27T10:10:47.832Z,440
2017-06-27T10:12:10.083Z,445
2017-06-27T10:13:32.843Z,445
2017-06-27T10:14:55.305Z,450
2017-06-27T10:16:17.533Z,440
2017-06-27T10:17:39.076Z,445
2017-06-27T10:19:01.274Z,440
2017-06-27T10:20:23.398Z,420
2017-06-27T10:21:45.344Z,430
2017-06-27T10:23:07.514Z,445
2017-06-27T10:24:30.419Z,435
2017-06-27T10:25:52.545Z,435
2017-06-27T10:27:14.721Z,445
2017-06-27T10:28:36.950Z,445
2017-06-27T10:29:59.447Z,425
2017-06-27T10:31:21.903Z,420
2017-06-27T10:32:43.458Z,410
2017-06-27T10:34:05.613Z,415
2017-06-27T10:35:27.804Z,425
2017-06-27T10:36:50.058Z,435
2017-06-27T10:38:12.541Z,435
2017-06-27T10:39:34.682Z,440
2017-06-27T10:40:56.501Z,435
2017-06-27T10:42:18.654Z,455
2017-06-27T10:43:41.101Z,460
2017-06-27T10:45:03.298Z,475
2017-06-27T10:46:25.132Z,465
2017-06-27T10:47:47.712Z,470
2017-06-27T10:49:09.540Z,490
2017-06-27T10:50:32.041Z,500
2017-06-27T10:51:54.243Z,470
2017-06-27T10:53:16.402Z,455
2017-06-27T10:54:38.224Z,440
2017-06-27T10:56:00.673Z,425
2017-06-27T10:57:23.098Z,420
2017-06-27T10:58:45.574Z,410
2017-06-27T11:00:08.113Z,410
2017-06-27T11:01:30.582Z,415
2017-06-27T11:02:53.202Z,455
2017-06-27T11:04:15.357Z,460
2017-06-27T11:05:37.944Z,455
2017-06-27T11:06:59.431Z,440
2017-06-27T11:08:21.575Z,435
2017-06-27T11:09:44.053Z,420
2017-06-27T11:11:06.205Z,420
2017-06-27T11:12:28.798Z,395
2017-06-27T11:13:51.552Z,395
2017-06-27T11:15:13.685Z,360
2017-06-27T11:16:36.150Z,355
2017-06-27T11:17:58.601Z,355
2017-06-27T11:19:21.143Z,360
2017-06-27T11:20:43.313Z,335
2017-06-27T11:22:05.145Z,360
2017-06-27T11:23:27.362Z,340
2017-06-27T11:24:49.464Z,325
2017-06-27T11:26:11.612Z,340
2017-06-27T11:27:33.434Z,325
2017-06-27T11:28:55.339Z,325
2017-06-27T11:30:18.243Z,335
2017-06-27T11:31:39.762Z,330
2017-06-27T11:33:02.028Z,330
2017-06-27T11:34:23.905Z,335
2017-06-27T11:35:46.323Z,360
2017-06-27T11:37:08.482Z,360
2017-06-27T11:38:30.308Z,355
2017-06-27T11:39:52.778Z,345
2017-06-27T11:41:15.158Z,310
2017-06-27T11:42:37.302Z,300
2017-06-27T11:43:59.536Z,295
2017-06-27T11:45:22.163Z,295
2017-06-27T11:46:44.315Z,285
2017-06-27T11:48:05.921Z,290
2017-06-27T11:49:28.381Z,290
2017-06-27T11:50:50.519Z,295
2017-06-27T11:52:12.022Z,300
2017-06-27T11:53:34.463Z,310
2017-06-27T11:54:56.941Z,320
2017-06-27T11:56:19.441Z,335
2017-06-27T11:57:41.905Z,350
2017-06-27T11:59:04.131Z,350
2017-06-27T12:00:26.583Z,365
2017-06-27T12:01:48.782Z,405
2017-06-27T12:03:11.215Z,415
2017-06-27T12:04:33.648Z,415
2017-06-27T12:05:55.810Z,400
2017-06-27T12:07:18.283Z,365
2017-06-27T12:08:41.103Z,345
2017-06-27T12:10:03.373Z,330
2017-06-27T12:11:25.202Z,300
2017-06-27T12:12:47.343Z,290
2017-06-27T12:14:10.044Z,280
2017-06-27T12:15:32.270Z,285
2017-06-27T12:16:54.412Z,290
2017-06-27T12:18:16.443Z,280
2017-06-27T12:19:39.202Z,265
2017-06-27T12:21:00.712Z,260
2017-06-27T12:22:22.862Z,250
2017-06-27T12:23:45.353Z,240
2017-06-27T12:25:08.229Z,240
2017-06-27T12:26:30.097Z,235
2017-06-27T12:27:52.544Z,235
2017-06-27T12:29:14.763Z,235
2017-06-27T12:30:37.359Z,225
2017-06-27T12:31:59.533Z,220
2017-06-27T12:33:21.464Z,210
2017-06-27T12:34:44.080Z,210
2017-06-27T12:36:06.228Z,205
2017-06-27T12:37:28.737Z,200
2017-06-27T12:38:51.207Z,205
2017-06-27T12:40:13.350Z,205
2017-06-27T12:41:35.813Z,220
2017-06-27T12:42:58.003Z,230
2017-06-27T12:44:20.143Z,240
2017-06-27T12:45:42.322Z,240
2017-06-27T12:47:04.759Z,245
2017-06-27T12:48:27.308Z,250
2017-06-27T12:49:49.790Z,250
2017-06-27T12:51:11.924Z,245
2017-06-27T12:52:34.412Z,230
2017-06-27T12:53:56.582Z,215
2017-06-27T12:55:18.539Z,210
2017-06-27T12:56:40.064Z,220
2017-06-27T12:58:02.873Z,230
2017-06-27T12:59:25.112Z,250
2017-06-27T13:00:47.792Z,280
2017-06-27T13:02:09.603Z,310
2017-06-27T13:03:31.362Z,340
2017-06-27T13:04:53.846Z,365
2017-06-27T13:06:16.002Z,390
2017-06-27T13:07:38.152Z,410
2017-06-27T13:08:59.650Z,420
2017-06-27T13:10:22.232Z,430
2017-06-27T13:11:44.044Z,445
2017-06-27T13:13:06.370Z,455
2017-06-27T13:14:28.615Z,475
2017-06-27T13:15:50.752Z,465
2017-06-27T13:17:12.638Z,465
2017-06-27T13:18:34.152Z,470
2017-06-27T13:19:56.913Z,475
2017-06-27T13:21:18.759Z,480
2017-06-27T13:22:40.360Z,480
2017-06-27T13:24:02.823Z,470
2017-06-27T13:25:25.436Z,470
2017-06-27T13:26:47.556Z,480
2017-06-27T13:28:10.066Z,485
2017-06-27T13:29:31.903Z,485
2017-06-27T13:30:54.154Z,485
2017-06-27T13:32:16.622Z,470
2017-06-27T13:33:38.856Z,450
2017-06-27T13:35:01.444Z,420
2017-06-27T13:36:23.603Z,400
2017-06-27T13:37:45.173Z,390
2017-06-27T13:39:07.763Z,390
2017-06-27T13:40:29.592Z,395
2017-06-27T13:41:52.049Z,405
2017-06-27T13:43:14.514Z,415
2017-06-27T13:44:36.654Z,430
2017-06-27T13:45:58.794Z,470
2017-06-27T13:47:21.529Z,480
2017-06-27T13:48:43.044Z,480
2017-06-27T13:50:05.192Z,495
2017-06-27T13:51:27.039Z,460
2017-06-27T13:52:49.492Z,430
2017-06-27T13:54:11.822Z,390
2017-06-27T13:55:33.663Z,345
2017-06-27T13:56:55.484Z,310
2017-06-27T13:58:18.242Z,300
2017-06-27T13:59:40.373Z,290
2017-06-27T14:01:02.834Z,285
2017-06-27T14:02:24.684Z,280
2017-06-27T14:03:47.542Z,285
2017-06-27T14:05:09.424Z,295
2017-06-27T14:06:31.873Z,295
2017-06-27T14:07:54.413Z,300
2017-06-27T14:09:17.018Z,320
2017-06-27T14:10:39.555Z,325
2017-06-27T14:12:01.373Z,335
2017-06-27T14:13:23.592Z,345
2017-06-27T14:14:45.975Z,360
2017-06-27T14:16:08.425Z,375
2017-06-27T14:17:29.982Z,390
2017-06-27T14:18:51.862Z,400
2017-06-27T14:20:14.669Z,410
2017-06-27T14:21:36.606Z,415
2017-06-27T14:22:58.504Z,405
2017-06-27T14:24:21.122Z,380
2017-06-27T14:25:43.955Z,360
2017-06-27T14:27:05.794Z,355
2017-06-27T14:28:28.321Z,350
2017-06-27T14:29:50.570Z,350
2017-06-27T14:31:12.453Z,360
2017-06-27T14:32:34.343Z,380
2017-06-27T14:33:55.871Z,395
2017-06-27T14:35:18.115Z,410
2017-06-27T14:36:40.365Z,430
2017-06-27T14:38:02.395Z,430
2017-06-27T14:39:24.853Z,435
2017-06-27T14:40:46.363Z,430
2017-06-27T14:42:08.502Z,415
2017-06-27T14:43:30.016Z,385
2017-06-27T14:44:51.841Z,370
2017-06-27T14:46:14.289Z,360
2017-06-27T14:47:36.906Z,370
2017-06-27T14:48:59.111Z,385
2017-06-27T14:50:20.618Z,405
2017-06-27T14:51:43.073Z,415
2017-06-27T14:53:05.721Z,420
2017-06-27T14:54:28.163Z,425
2017-06-27T14:55:49.357Z,420
2017-06-27T14:57:11.586Z,420
2017-06-27T14:58:34.412Z,415
2017-06-27T14:59:56.655Z,400
2017-06-27T15:01:18.815Z,400
2017-06-27T15:02:40.983Z,395
2017-06-27T15:04:03.487Z,390
2017-06-27T15:05:25.366Z,370
2017-06-27T15:06:47.490Z,365
2017-06-27T15:08:09.323Z,355
2017-06-27T15:09:32.055Z,345
2017-06-27T15:10:54.205Z,345
2017-06-27T15:12:16.342Z,340
2017-06-27T15:13:38.844Z,340
2017-06-27T15:15:01.345Z,340
2017-06-27T15:16:23.655Z,350
2017-06-27T15:17:45.809Z,350
2017-06-27T15:19:08.393Z,345
2017-06-27T15:20:30.853Z,345
2017-06-27T15:21:52.705Z,345
2017-06-27T15:23:14.861Z,345
2017-06-27T15:24:37.105Z,350
2017-06-27T15:25:59.878Z,350
2017-06-27T15:27:22.333Z,345
2017-06-27T15:28:44.471Z,345
2017-06-27T15:30:06.633Z,335
2017-06-27T15:31:28.721Z,330
2017-06-27T15:32:50.635Z,330
2017-06-27T15:34:12.483Z,325
2017-06-27T15:35:34.639Z,320
2017-06-27T15:36:57.130Z,310
2017-06-27T15:38:19.275Z,315
2017-06-27T15:39:41.427Z,305
2017-06-27T15:41:03.891Z,305
2017-06-27T15:42:25.792Z,305
2017-06-27T15:43:47.979Z,305
2017-06-27T15:45:10.135Z,300
2017-06-27T15:46:32.686Z,300
2017-06-27T15:47:55.542Z,290
2017-06-27T15:49:17.713Z,285
2017-06-27T15:50:39.302Z,280
2017-06-27T15:52:01.141Z,275
2017-06-27T15:53:23.692Z,275
2017-06-27T15:54:45.851Z,275
2017-06-27T15:56:08.094Z,275
2017-06-27T15:57:30.554Z,280
2017-06-27T15:58:53.307Z,285
2017-06-27T16:00:15.624Z,290
2017-06-27T16:01:37.873Z,295
2017-06-27T16:03:00.031Z,300
2017-06-27T16:04:22.592Z,300
2017-06-27T16:05:44.412Z,300
2017-06-27T16:07:06.561Z,295
2017-06-27T16:08:28.701Z,295
2017-06-27T16:09:50.849Z,285
2017-06-27T16:11:13.017Z,275
2017-06-27T16:12:35.163Z,265
2017-06-27T16:13:57.082Z,260
2017-06-27T16:15:19.809Z,250
2017-06-27T16:16:41.641Z,245
2017-06-27T16:18:04.132Z,245
2017-06-27T16:19:25.973Z,240
2017-06-27T16:20:48.710Z,240
2017-06-27T16:22:11.253Z,240
2017-06-27T16:23:33.194Z,240
2017-06-27T16:24:55.329Z,240
2017-06-27T16:26:17.402Z,240
2017-06-27T16:27:39.576Z,245
2017-06-27T16:29:01.421Z,245
2017-06-27T16:30:23.291Z,245
2017-06-27T16:31:46.060Z,245
2017-06-27T16:33:08.574Z,245
2017-06-27T16:34:30.864Z,245
2017-06-27T16:35:53.018Z,250
2017-06-27T16:37:15.735Z,250
2017-06-27T16:38:37.901Z,250
2017-06-27T16:40:00.368Z,250
2017-06-27T16:41:22.500Z,250
2017-06-27T16:42:44.597Z,250
2017-06-27T16:44:06.443Z,250
2017-06-27T16:45:28.938Z,245
2017-06-27T16:46:51.405Z,240
2017-06-27T16:48:14.361Z,230
2017-06-27T16:49:36.533Z,220
2017-06-27T16:50:58.433Z,205
2017-06-27T16:52:20.355Z,190
2017-06-27T16:53:42.457Z,180
2017-06-27T16:55:04.618Z,170
2017-06-27T16:56:26.763Z,150
2017-06-27T16:57:49.222Z,135
2017-06-27T16:59:11.731Z,130
2017-06-27T17:00:34.173Z,120
2017-06-27T17:01:56.022Z,115
2017-06-27T17:03:18.493Z,110
2017-06-27T17:04:41.112Z,105
2017-06-27T17:06:03.281Z,100
2017-06-27T17:07:25.863Z,95
2017-06-27T17:08:48.343Z,95
2017-06-27T17:10:11.221Z,95
2017-06-27T17:11:33.683Z,90
2017-06-27T17:12:56.133Z,90
2017-06-27T17:14:18.419Z,85
2017-06-27T17:15:40.963Z,85
2017-06-27T17:17:03.521Z,85
2017-06-27T17:18:25.040Z,85
2017-06-27T17:19:46.259Z,80
2017-06-27T17:21:08.971Z,75
2017-06-27T17:22:31.420Z,75
2017-06-27T17:23:53.389Z,75
2017-06-27T17:25:15.675Z,75
2017-06-27T17:26:38.476Z,70
2017-06-27T17:28:00.642Z,65
2017-06-27T17:29:22.812Z,60
2017-06-27T17:30:45.292Z,55
2017-06-27T17:32:07.823Z,50
2017-06-27T17:33:30.274Z,50
2017-06-27T17:34:52.554Z,45
2017-06-27T17:36:14.711Z,45
2017-06-27T17:37:36.788Z,45
2017-06-27T17:38:59.277Z,45
2017-06-27T17:40:21.453Z,45
2017-06-27T17:41:43.934Z,45
2017-06-27T17:43:06.682Z,45
2017-06-27T17:44:29.343Z,45
2017-06-27T17:45:51.514Z,45
2017-06-27T17:47:13.705Z,45
2017-06-27T17:48:36.545Z,45
2017-06-27T17:49:59.032Z,45
2017-06-27T17:51:21.562Z,45
2017-06-27T17:52:43.439Z,45
2017-06-27T17:54:06.287Z,45
2017-06-27T17:55:28.434Z,45
2017-06-27T17:56:50.273Z,45
2017-06-27T17:58:12.465Z,45
2017-06-27T17:59:35.203Z,45
2017-06-27T18:00:57.472Z,45
2017-06-27T18:02:19.937Z,45
2017-06-27T18:03:42.111Z,50
2017-06-27T18:05:04.333Z,50
2017-06-27T18:06:26.592Z,50
2017-06-27T18:07:48.464Z,55
2017-06-27T18:09:10.925Z,55
2017-06-27T18:10:33.182Z,55
2017-06-27T18:11:55.152Z,55
2017-06-27T18:13:17.294Z,55
2017-06-27T18:14:39.140Z,55
2017-06-27T18:16:01.369Z,55
2017-06-27T18:17:23.281Z,55
2017-06-27T18:18:45.431Z,50
2017-06-27T18:20:07.293Z,50
2017-06-27T18:21:29.882Z,50
2017-06-27T18:22:51.382Z,50
2017-06-27T18:24:13.873Z,45
2017-06-27T18:25:36.095Z,45
2017-06-27T18:26:58.592Z,45
2017-06-27T18:28:20.721Z,45
2017-06-27T18:29:43.201Z,45
2017-06-27T18:31:05.152Z,45
2017-06-27T18:32:27.814Z,45
2017-06-27T18:33:49.644Z,45
2017-06-27T18:35:12.112Z,45
2017-06-27T18:36:34.283Z,40
2017-06-27T18:37:56.687Z,40
2017-06-27T18:39:18.898Z,35
2017-06-27T18:40:41.403Z,35
2017-06-27T18:42:03.679Z,35
2017-06-27T18:43:26.172Z,30
2017-06-27T18:44:48.314Z,30
2017-06-27T18:46:10.491Z,30
2017-06-27T18:47:32.982Z,30
2017-06-27T18:48:55.526Z,35
2017-06-27T18:50:17.684Z,35
2017-06-27T18:51:39.753Z,35
2017-06-27T18:53:01.892Z,35
2017-06-27T18:54:24.294Z,30
2017-06-27T18:55:46.655Z,30
2017-06-27T18:57:08.831Z,25
2017-06-27T18:58:31.304Z,25
2017-06-27T18:59:53.419Z,25
2017-06-27T19:01:15.370Z,20
2017-06-27T19:02:37.258Z,20
2017-06-27T19:03:59.090Z,20
2017-06-27T19:05:21.892Z,20
2017-06-27T19:06:44.494Z,15
2017-06-27T19:08:06.652Z,15
2017-06-27T19:09:29.166Z,15